createdAt,value
2023-06-10T00:00:36.952Z,101737.38
2023-06-10T00:01:38.835Z,101744.50
2023-06-10T00:02:40.834Z,101735.72
2023-06-10T00:03:44.634Z,101738.44
2023-06-10T00:04:46.547Z,101734.03
2023-06-10T00:05:48.217Z,101734.06
2023-06-10T00:06:50.701Z,101736.66
2023-06-10T00:07:54.354Z,101733.22
2023-06-10T00:08:58.590Z,101738.44
2023-06-10T00:10:01.072Z,101733.22
2023-06-10T00:11:02.684Z,101742.03
2023-06-10T00:12:09.050Z,101748.19
2023-06-10T00:13:11.060Z,101733.28
2023-06-10T00:14:12.723Z,101734.16
2023-06-10T00:15:17.388Z,101734.16
2023-06-10T00:16:22.364Z,101737.72
2023-06-10T00:17:26.349Z,101733.31
2023-06-10T00:18:28.093Z,101732.47
2023-06-10T00:19:32.762Z,101729.88
2023-06-10T00:20:37.046Z,101734.34
2023-06-10T00:21:41.170Z,101735.25
2023-06-10T00:22:46.616Z,101740.53
2023-06-10T00:23:48.444Z,101743.13
2023-06-10T00:24:50.146Z,101735.25
2023-06-10T00:25:51.807Z,101741.38
2023-06-10T00:26:53.432Z,101731.66
2023-06-10T00:27:55.043Z,101736.06
2023-06-10T00:28:56.654Z,101736.06
2023-06-10T00:29:58.657Z,101735.19
2023-06-10T00:31:00.474Z,101735.31
2023-06-10T00:32:02.258Z,101738.94
2023-06-10T00:33:04.204Z,101733.69
2023-06-10T00:34:05.933Z,101742.47
2023-06-10T00:35:08.668Z,101738.03
2023-06-10T00:36:10.763Z,101738.13
2023-06-10T00:37:12.347Z,101749.53
2023-06-10T00:38:15.887Z,101738.16
2023-06-10T00:39:18.588Z,101739.00
2023-06-10T00:40:20.460Z,101740.84
2023-06-10T00:41:22.065Z,101734.75
2023-06-10T00:42:25.206Z,101741.84
2023-06-10T00:43:26.863Z,101739.25
2023-06-10T00:44:28.525Z,101741.00
2023-06-10T00:45:30.418Z,101733.03
2023-06-10T00:46:34.644Z,101746.22
2023-06-10T00:47:36.663Z,101735.69
2023-06-10T00:48:39.795Z,101743.63
2023-06-10T00:49:41.506Z,101731.38
2023-06-10T00:50:43.153Z,101736.69
2023-06-10T00:51:45.226Z,101730.56
2023-06-10T00:52:49.442Z,101745.53
2023-06-10T00:53:53.646Z,101740.25
2023-06-10T00:54:55.684Z,101737.66
2023-06-10T00:55:57.856Z,101739.44
2023-06-10T00:57:01.871Z,101745.56
2023-06-10T00:58:05.057Z,101740.38
2023-06-10T00:59:07.512Z,101744.78
2023-06-10T01:00:09.982Z,101737.72
2023-06-10T01:01:14.511Z,101742.06
2023-06-10T01:02:16.356Z,101739.47
2023-06-10T01:03:18.737Z,101746.50
2023-06-10T01:04:20.958Z,101742.06
2023-06-10T01:05:24.794Z,101739.44
2023-06-10T01:07:07.105Z,101743.00
2023-06-10T01:08:40.506Z,101742.22
2023-06-10T01:10:03.952Z,101744.09
2023-06-10T01:11:09.862Z,101749.38
2023-06-10T01:12:20.093Z,101744.13
2023-06-10T01:13:24.936Z,101738.88
2023-06-10T01:14:27.857Z,101742.38
2023-06-10T01:15:32.937Z,101746.81
2023-06-10T01:16:37.067Z,101747.69
2023-06-10T01:18:04.601Z,101738.91
2023-06-10T01:19:07.552Z,101745.91
2023-06-10T01:20:13.109Z,101739.72
2023-06-10T01:21:21.980Z,101751.97
2023-06-10T01:22:29.328Z,101740.47
2023-06-10T01:23:31.488Z,101747.50
2023-06-10T01:24:33.688Z,101739.59
2023-06-10T01:25:50.955Z,101743.09
2023-06-10T01:26:54.910Z,101743.94
2023-06-10T01:28:02.342Z,101739.56
2023-06-10T01:29:20.041Z,101739.59
2023-06-10T01:30:30.814Z,101741.34
2023-06-10T01:31:43.082Z,101735.22
2023-06-10T01:32:52.361Z,101743.09
2023-06-10T01:33:54.923Z,101741.31
2023-06-10T01:35:00.615Z,101744.78
2023-06-10T01:36:04.499Z,101745.66
2023-06-10T01:37:07.004Z,101744.78
2023-06-10T01:38:08.690Z,101742.13
2023-06-10T01:39:12.915Z,101746.50
2023-06-10T01:40:15.880Z,101746.47
2023-06-10T01:41:18.717Z,101744.63
2023-06-10T01:42:21.691Z,101746.38
2023-06-10T01:43:23.376Z,101740.25
2023-06-10T01:44:25.596Z,101738.47
2023-06-10T01:45:27.251Z,101737.53
2023-06-10T01:46:28.930Z,101746.28
2023-06-10T01:47:31.161Z,101746.28
2023-06-10T01:48:35.473Z,101737.47
2023-06-10T01:49:37.143Z,101737.50
2023-06-10T01:50:38.783Z,101749.84
2023-06-10T01:51:40.701Z,101739.28
2023-06-10T01:52:42.877Z,101746.34
2023-06-10T01:53:44.624Z,101740.19
2023-06-10T01:54:46.264Z,101738.41
2023-06-10T01:55:47.889Z,101745.50
2023-06-10T01:56:49.530Z,101739.38
2023-06-10T01:57:51.362Z,101742.91
2023-06-10T01:58:56.057Z,101739.38
2023-06-10T01:59:57.767Z,101735.88
2023-06-10T02:00:59.435Z,101734.09
2023-06-10T02:02:01.177Z,101742.00
2023-06-10T02:03:03.235Z,101737.66
2023-06-10T02:04:04.996Z,101743.84
2023-06-10T02:05:07.976Z,101739.44
2023-06-10T02:06:12.521Z,101742.03
2023-06-10T02:07:14.192Z,101742.00
2023-06-10T02:08:16.025Z,101740.22
2023-06-10T02:09:19.437Z,101741.03
2023-06-10T02:10:21.305Z,101741.88
2023-06-10T02:11:22.957Z,101741.84
2023-06-10T02:12:24.591Z,101745.34
2023-06-10T02:13:26.243Z,101741.78
2023-06-10T02:14:29.596Z,101742.63
2023-06-10T02:15:31.191Z,101751.38
2023-06-10T02:16:32.976Z,101739.94
2023-06-10T02:17:36.829Z,101746.94
2023-06-10T02:18:39.498Z,101745.13
2023-06-10T02:19:44.064Z,101747.75
2023-06-10T02:20:45.822Z,101743.31
2023-06-10T02:21:47.575Z,101745.91
2023-06-10T02:22:52.789Z,101744.16
2023-06-10T02:23:54.497Z,101750.31
2023-06-10T02:24:56.164Z,101751.16
2023-06-10T02:25:57.807Z,101750.25
2023-06-10T02:27:01.477Z,101744.97
2023-06-10T02:28:04.511Z,101740.59
2023-06-10T02:29:06.187Z,101748.50
2023-06-10T02:30:11.295Z,101747.59
2023-06-10T02:31:12.953Z,101744.13
2023-06-10T02:32:14.876Z,101738.81
2023-06-10T02:33:18.640Z,101743.22
2023-06-10T02:34:20.831Z,101740.59
2023-06-10T02:35:23.692Z,101744.16
2023-06-10T02:36:29.199Z,101737.09
2023-06-10T02:37:31.202Z,101736.25
2023-06-10T02:38:33.200Z,101738.00
2023-06-10T02:39:35.807Z,101745.09
2023-06-10T02:40:41.362Z,101742.50
2023-06-10T02:41:43.309Z,101749.53
2023-06-10T02:42:45.049Z,101750.47
2023-06-10T02:43:47.224Z,101746.03
2023-06-10T02:44:48.962Z,101752.22
2023-06-10T02:45:57.536Z,101756.63
2023-06-10T02:46:59.369Z,101749.59
2023-06-10T02:48:01.427Z,101751.38
2023-06-10T02:49:03.644Z,101741.78
2023-06-10T02:50:05.682Z,101747.91
2023-06-10T02:51:12.074Z,101743.56
2023-06-10T02:52:17.418Z,101743.59
2023-06-10T02:53:19.136Z,101742.69
2023-06-10T02:54:26.626Z,101733.03
2023-06-10T02:55:30.519Z,101735.69
2023-06-10T02:56:37.506Z,101737.47
2023-06-10T02:57:41.669Z,101737.50
2023-06-10T02:58:43.818Z,101748.00
2023-06-10T02:59:48.638Z,101744.56
2023-06-10T03:00:50.732Z,101748.97
2023-06-10T03:01:52.676Z,101742.91
2023-06-10T03:02:58.612Z,101748.22
2023-06-10T03:04:06.408Z,101743.91
2023-06-10T03:05:12.397Z,101746.53
2023-06-10T03:06:17.814Z,101751.84
2023-06-10T03:07:21.764Z,101741.34
2023-06-10T03:08:27.380Z,101744.88
2023-06-10T03:09:30.307Z,101744.91
2023-06-10T03:10:34.444Z,101744.06
2023-06-10T03:11:36.904Z,101746.69
2023-06-10T03:12:39.522Z,101744.09
2023-06-10T03:13:41.673Z,101739.72
2023-06-10T03:14:46.254Z,101737.97
2023-06-10T03:15:48.083Z,101743.28
2023-06-10T03:16:53.160Z,101744.16
2023-06-10T03:17:56.382Z,101740.72
2023-06-10T03:18:58.962Z,101749.50
2023-06-10T03:20:01.022Z,101747.81
2023-06-10T03:21:03.848Z,101747.00
2023-06-10T03:22:13.664Z,101738.25
2023-06-10T03:23:21.695Z,101750.66
2023-06-10T03:24:23.609Z,101752.41
2023-06-10T03:25:27.208Z,101743.69
2023-06-10T03:26:29.639Z,101746.34
2023-06-10T03:27:32.418Z,101748.09
2023-06-10T03:28:36.824Z,101752.44
2023-06-10T03:29:39.020Z,101753.31
2023-06-10T03:30:41.842Z,101755.97
2023-06-10T03:31:45.169Z,101753.28
2023-06-10T03:32:46.947Z,101755.03
2023-06-10T03:33:52.054Z,101756.75
2023-06-10T03:34:58.063Z,101757.59
2023-06-10T03:36:01.704Z,101755.81
2023-06-10T03:37:04.191Z,101760.19
2023-06-10T03:38:07.047Z,101759.31
2023-06-10T03:39:08.910Z,101754.03
2023-06-10T03:40:11.430Z,101747.81
2023-06-10T03:41:16.143Z,101753.88
2023-06-10T03:42:19.577Z,101759.03
2023-06-10T03:43:21.530Z,101756.28
2023-06-10T03:44:27.152Z,101745.72
2023-06-10T03:45:29.375Z,101754.53
2023-06-10T03:46:32.235Z,101752.78
2023-06-10T03:47:38.057Z,101750.13
2023-06-10T03:48:43.644Z,101750.13
2023-06-10T03:49:45.521Z,101754.50
2023-06-10T03:50:48.681Z,101752.75
2023-06-10T03:51:51.091Z,101754.44
2023-06-10T03:52:53.048Z,101756.19
2023-06-10T03:53:58.493Z,101749.19
2023-06-10T03:55:00.155Z,101750.91
2023-06-10T03:56:01.847Z,101755.31
2023-06-10T03:57:06.741Z,101757.03
2023-06-10T03:58:08.388Z,101759.66
2023-06-10T03:59:10.083Z,101749.03
2023-06-10T04:00:13.075Z,101758.69
2023-06-10T04:01:19.168Z,101762.13
2023-06-10T04:02:21.014Z,101755.13
2023-06-10T04:03:24.049Z,101758.59
2023-06-10T04:04:27.418Z,101760.34
2023-06-10T04:05:29.881Z,101755.94
2023-06-10T04:06:32.704Z,101762.91
2023-06-10T04:07:35.472Z,101762.88
2023-06-10T04:08:37.358Z,101757.53
2023-06-10T04:09:39.876Z,101756.59
2023-06-10T04:10:41.541Z,101759.19
2023-06-10T04:11:43.191Z,101758.22
2023-06-10T04:12:45.403Z,101766.06
2023-06-10T04:13:47.167Z,101758.09
2023-06-10T04:14:49.756Z,101758.00
2023-06-10T04:15:51.975Z,101755.28
2023-06-10T04:16:56.304Z,101754.31
2023-06-10T04:17:58.374Z,101750.78
2023-06-10T04:19:01.693Z,101751.56
2023-06-10T04:20:07.552Z,101755.91
2023-06-10T04:21:11.803Z,101754.06
2023-06-10T04:22:13.746Z,101759.25
2023-06-10T04:23:15.531Z,101757.47
2023-06-10T04:24:19.635Z,101759.19
2023-06-10T04:25:21.668Z,101760.94
2023-06-10T04:26:26.530Z,101766.22
2023-06-10T04:27:28.684Z,101756.50
2023-06-10T04:28:30.500Z,101763.47
2023-06-10T04:29:32.984Z,101768.81
2023-06-10T04:30:35.226Z,101760.03
2023-06-10T04:31:37.450Z,101754.75
2023-06-10T04:32:40.238Z,101756.47
2023-06-10T04:33:45.533Z,101756.41
2023-06-10T04:34:47.243Z,101752.13
2023-06-10T04:35:49.874Z,101744.28
2023-06-10T04:36:53.229Z,101750.31
2023-06-10T04:37:56.073Z,101753.69
2023-06-10T04:38:57.821Z,101757.06
2023-06-10T04:40:00.391Z,101757.72
2023-06-10T04:41:03.350Z,101753.13
2023-06-10T04:42:08.237Z,101756.56
2023-06-10T04:43:10.505Z,101760.88
2023-06-10T04:44:14.718Z,101760.72
2023-06-10T04:45:16.963Z,101750.84
2023-06-10T04:46:18.697Z,101755.97
2023-06-10T04:47:21.288Z,101751.53
2023-06-10T04:48:24.956Z,101761.09
2023-06-10T04:49:27.353Z,101756.63
2023-06-10T04:50:28.982Z,101760.16
2023-06-10T04:51:30.627Z,101758.38
2023-06-10T04:52:32.321Z,101758.25
2023-06-10T04:53:35.537Z,101757.25
2023-06-10T04:54:37.149Z,101758.84
2023-06-10T04:55:38.759Z,101757.94
2023-06-10T04:56:40.891Z,101758.78
2023-06-10T04:57:42.695Z,101754.28
2023-06-10T04:58:44.563Z,101754.22
2023-06-10T04:59:46.242Z,101762.09
2023-06-10T05:00:47.874Z,101754.06
2023-06-10T05:01:49.589Z,101758.41
2023-06-10T05:02:52.384Z,101749.47
2023-06-10T05:03:54.090Z,101751.97
2023-06-10T05:04:56.131Z,101750.19
2023-06-10T05:05:57.805Z,101750.06
2023-06-10T05:06:59.869Z,101755.31
2023-06-10T05:08:01.552Z,101749.94
2023-06-10T05:09:03.387Z,101748.03
2023-06-10T05:10:05.415Z,101754.13
2023-06-10T05:11:07.389Z,101751.31
2023-06-10T05:12:09.974Z,101757.31
2023-06-10T05:13:12.001Z,101747.47
2023-06-10T05:14:13.915Z,101753.38
2023-06-10T05:15:15.641Z,101762.13
2023-06-10T05:16:17.366Z,101757.78
2023-06-10T05:17:21.231Z,101754.97
2023-06-10T05:18:22.905Z,101757.66
2023-06-10T05:19:24.666Z,101756.66
2023-06-10T05:20:27.014Z,101755.66
2023-06-10T05:21:28.677Z,101756.41
2023-06-10T05:22:30.355Z,101756.28
2023-06-10T05:23:32.070Z,101761.50
2023-06-10T05:24:33.774Z,101762.31
2023-06-10T05:25:36.128Z,101764.84
2023-06-10T05:26:38.397Z,101766.47
2023-06-10T05:27:41.328Z,101765.47
2023-06-10T05:28:44.042Z,101760.94
2023-06-10T05:29:46.457Z,101769.63
2023-06-10T05:30:48.073Z,101771.34
2023-06-10T05:31:49.714Z,101761.72
2023-06-10T05:32:52.326Z,101766.09
2023-06-10T05:33:56.230Z,101761.53
2023-06-10T05:34:57.843Z,101766.66
2023-06-10T05:35:59.512Z,101765.69
2023-06-10T05:37:01.107Z,101764.72
2023-06-10T05:38:04.217Z,101769.78
2023-06-10T05:39:06.073Z,101768.00
2023-06-10T05:40:08.418Z,101762.56
2023-06-10T05:41:10.168Z,101765.88
2023-06-10T05:42:11.778Z,101761.19
2023-06-10T05:43:13.464Z,101764.59
2023-06-10T05:44:15.165Z,101765.38
2023-06-10T05:45:17.132Z,101758.22
2023-06-10T05:46:18.889Z,101761.63
2023-06-10T05:47:20.723Z,101765.91
2023-06-10T05:48:22.454Z,101758.63
2023-06-10T05:49:24.040Z,101769.03
2023-06-10T05:50:25.936Z,101756.63
2023-06-10T05:51:28.509Z,101758.56
2023-06-10T05:52:30.142Z,101757.03
2023-06-10T05:53:32.978Z,101755.91
2023-06-10T05:54:34.690Z,101755.63
2023-06-10T05:55:37.148Z,101749.13
2023-06-10T05:56:38.797Z,101753.25
2023-06-10T05:57:42.715Z,101753.66
2023-06-10T05:58:44.325Z,101746.22
2023-06-10T05:59:46.105Z,101750.28
2023-06-10T06:00:47.714Z,101748.94
2023-06-10T06:01:51.114Z,101756.78
2023-06-10T06:02:53.785Z,101752.16
2023-06-10T06:03:55.836Z,101745.75
2023-06-10T06:04:57.738Z,101746.50
2023-06-10T06:05:59.478Z,101743.22
2023-06-10T06:07:01.173Z,101748.34
2023-06-10T06:08:03.301Z,101750.78
2023-06-10T06:09:04.992Z,101746.38
2023-06-10T06:10:07.149Z,101743.78
2023-06-10T06:11:08.781Z,101739.31
2023-06-10T06:12:10.685Z,101749.88
2023-06-10T06:13:12.378Z,101742.66
2023-06-10T06:14:14.003Z,101737.03
2023-06-10T06:15:15.778Z,101735.81
2023-06-10T06:16:17.956Z,101737.28
2023-06-10T06:17:19.683Z,101734.03
2023-06-10T06:18:21.414Z,101742.00
2023-06-10T06:19:23.092Z,101741.72
2023-06-10T06:20:24.808Z,101737.94
2023-06-10T06:21:26.483Z,101741.75
2023-06-10T06:22:28.075Z,101735.31
2023-06-10T06:23:29.722Z,101739.69
2023-06-10T06:24:31.416Z,101735.06
2023-06-10T06:25:33.088Z,101735.19
2023-06-10T06:26:34.747Z,101735.66
2023-06-10T06:27:36.349Z,101733.59
2023-06-10T06:28:38.225Z,101735.72
2023-06-10T06:29:40.000Z,101733.81
2023-06-10T06:30:42.095Z,101734.59
2023-06-10T06:31:43.697Z,101739.91
2023-06-10T06:32:45.549Z,101751.19
2023-06-10T06:33:47.192Z,101741.84
2023-06-10T06:34:50.631Z,101731.06
2023-06-10T06:35:52.220Z,101735.66
2023-06-10T06:36:53.868Z,101736.06
2023-06-10T06:37:56.337Z,101735.00
2023-06-10T06:39:02.529Z,101738.06
2023-06-10T06:40:05.040Z,101739.72
2023-06-10T06:41:07.631Z,101733.66
2023-06-10T06:42:09.452Z,101742.16
2023-06-10T06:43:37.147Z,101740.44
2023-06-10T06:44:45.666Z,101743.16
2023-06-10T06:45:47.390Z,101744.50
2023-06-10T06:46:49.163Z,101734.25
2023-06-10T06:47:50.994Z,101749.75
2023-06-10T06:48:52.923Z,101743.91
2023-06-10T06:49:54.730Z,101750.94
2023-06-10T06:50:57.418Z,101743.69
2023-06-10T06:51:59.038Z,101747.50
2023-06-10T06:53:00.792Z,101745.50
2023-06-10T06:54:02.663Z,101754.25
2023-06-10T06:55:04.965Z,101745.28
2023-06-10T06:56:06.589Z,101752.97
2023-06-10T06:57:09.162Z,101755.44
2023-06-10T06:58:10.931Z,101754.34
2023-06-10T06:59:15.036Z,101758.44
2023-06-10T07:00:16.962Z,101758.53
2023-06-10T07:01:18.723Z,101759.53
2023-06-10T07:02:20.933Z,101757.59
2023-06-10T07:03:22.600Z,101753.06
2023-06-10T07:04:24.461Z,101745.16
2023-06-10T07:05:28.611Z,101757.16
2023-06-10T07:06:30.406Z,101744.16
2023-06-10T07:07:31.992Z,101756.34
2023-06-10T07:08:33.760Z,101749.97
2023-06-10T07:09:35.484Z,101757.03
2023-06-10T07:10:37.119Z,101757.25
2023-06-10T07:11:38.799Z,101762.66
2023-06-10T07:12:40.483Z,101767.53
2023-06-10T07:13:42.729Z,101756.38
2023-06-10T07:14:44.549Z,101765.00
2023-06-10T07:15:46.150Z,101757.91
2023-06-10T07:16:49.583Z,101759.34
2023-06-10T07:17:51.517Z,101763.59
2023-06-10T07:18:56.133Z,101762.38
2023-06-10T07:20:00.540Z,101764.81
2023-06-10T07:21:02.139Z,101770.72
2023-06-10T07:22:03.913Z,101768.97
2023-06-10T07:23:05.748Z,101769.28
2023-06-10T07:24:07.728Z,101765.19
2023-06-10T07:25:09.962Z,101768.63
2023-06-10T07:26:14.293Z,101775.25
2023-06-10T07:27:16.119Z,101768.34
2023-06-10T07:28:17.781Z,101771.59
2023-06-10T07:29:19.520Z,101775.41
2023-06-10T07:30:21.423Z,101777.38
2023-06-10T07:31:24.752Z,101772.69
2023-06-10T07:32:26.537Z,101763.47
2023-06-10T07:33:28.234Z,101760.41
2023-06-10T07:34:29.834Z,101761.78
2023-06-10T07:35:31.486Z,101764.19
2023-06-10T07:36:33.181Z,101765.31
2023-06-10T07:37:36.852Z,101759.78
2023-06-10T07:38:38.541Z,101770.63
2023-06-10T07:39:40.362Z,101777.69
2023-06-10T07:40:41.935Z,101778.34
2023-06-10T07:41:43.713Z,101769.06
2023-06-10T07:42:45.524Z,101768.19
2023-06-10T07:43:47.215Z,101772.56
2023-06-10T07:44:48.869Z,101776.31
2023-06-10T07:45:50.572Z,101770.84
2023-06-10T07:46:52.259Z,101767.13
2023-06-10T07:47:53.949Z,101772.38
2023-06-10T07:48:55.959Z,101768.63
2023-06-10T07:49:57.631Z,101761.16
2023-06-10T07:50:59.322Z,101771.56
2023-06-10T07:52:01.024Z,101770.22
2023-06-10T07:53:02.814Z,101782.00
2023-06-10T07:54:04.719Z,101772.44
2023-06-10T07:55:06.961Z,101769.78
2023-06-10T07:56:10.920Z,101764.59
2023-06-10T07:57:12.548Z,101765.59
2023-06-10T07:58:14.237Z,101761.22
2023-06-10T07:59:15.977Z,101762.72
2023-06-10T08:00:18.075Z,101753.16
2023-06-10T08:01:22.131Z,101761.88
2023-06-10T08:02:25.732Z,101751.28
2023-06-10T08:03:27.833Z,101763.53
2023-06-10T08:04:31.994Z,101754.88
2023-06-10T08:05:33.792Z,101758.91
2023-06-10T08:06:35.470Z,101764.81
2023-06-10T08:07:37.251Z,101761.41
2023-06-10T08:08:44.015Z,101764.66
2023-06-10T08:09:45.692Z,101766.81
2023-06-10T08:10:47.494Z,101763.84
2023-06-10T08:11:49.099Z,101759.69
2023-06-10T08:12:50.961Z,101764.16
2023-06-10T08:13:52.716Z,101760.63
2023-06-10T08:14:56.013Z,101769.47
2023-06-10T08:15:57.651Z,101777.47
2023-06-10T08:16:59.402Z,101767.91
2023-06-10T08:18:01.166Z,101763.31
2023-06-10T08:19:02.971Z,101765.81
2023-06-10T08:20:05.002Z,101785.94
2023-06-10T08:21:06.677Z,101776.69
2023-06-10T08:22:08.320Z,101770.63
2023-06-10T08:23:10.018Z,101771.91
2023-06-10T08:24:11.763Z,101777.13
2023-06-10T08:25:13.446Z,101775.94
2023-06-10T08:26:15.199Z,101760.53
2023-06-10T08:27:16.838Z,101769.03
2023-06-10T08:28:19.374Z,101764.34
2023-06-10T08:29:21.001Z,101766.69
2023-06-10T08:30:22.645Z,101763.00
2023-06-10T08:31:24.595Z,101777.34
2023-06-10T08:32:26.202Z,101775.66
2023-06-10T08:33:27.952Z,101768.75
2023-06-10T08:34:29.665Z,101777.59
2023-06-10T08:35:31.344Z,101773.75
2023-06-10T08:36:32.923Z,101771.56
2023-06-10T08:37:34.663Z,101768.75
2023-06-10T08:38:36.865Z,101768.66
2023-06-10T08:39:38.964Z,101775.50
2023-06-10T08:40:40.758Z,101778.16
2023-06-10T08:41:44.940Z,101784.28
2023-06-10T08:43:11.647Z,101777.06
2023-06-10T08:44:29.521Z,101775.19
2023-06-10T08:45:33.230Z,101774.41
2023-06-10T08:46:37.033Z,101771.69
2023-06-10T08:47:43.438Z,101780.59
2023-06-10T08:48:48.633Z,101772.06
2023-06-10T08:49:50.649Z,101774.56
2023-06-10T08:50:53.441Z,101771.28
2023-06-10T08:52:03.140Z,101767.50
2023-06-10T08:53:08.735Z,101772.50
2023-06-10T08:54:16.612Z,101769.72
2023-06-10T08:55:33.096Z,101766.88
2023-06-10T08:56:40.926Z,101765.19
2023-06-10T08:57:45.551Z,101775.19
2023-06-10T08:58:48.888Z,101762.94
2023-06-10T08:59:50.834Z,101774.25
2023-06-10T09:00:53.216Z,101775.34
2023-06-10T09:01:55.991Z,101763.66
2023-06-10T09:03:00.232Z,101767.81
2023-06-10T09:04:04.498Z,101762.22
2023-06-10T09:05:06.612Z,101763.66
2023-06-10T09:06:08.410Z,101762.94
2023-06-10T09:07:11.017Z,101765.88
2023-06-10T09:08:12.765Z,101763.38
2023-06-10T09:09:15.953Z,101768.63
2023-06-10T09:10:17.889Z,101759.66
2023-06-10T09:11:19.637Z,101762.31
2023-06-10T09:12:21.485Z,101758.72
2023-06-10T09:13:23.193Z,101769.94
2023-06-10T09:14:25.295Z,101764.31
2023-06-10T09:15:26.902Z,101773.94
2023-06-10T09:16:29.291Z,101763.50
2023-06-10T09:17:31.240Z,101773.47
2023-06-10T09:18:32.879Z,101760.22
2023-06-10T09:19:36.567Z,101764.69
2023-06-10T09:20:39.971Z,101760.75
2023-06-10T09:21:41.659Z,101760.91
2023-06-10T09:22:44.636Z,101762.97
2023-06-10T09:23:46.942Z,101772.75
2023-06-10T09:24:49.010Z,101759.25
2023-06-10T09:25:58.902Z,101762.00
2023-06-10T09:27:08.753Z,101766.41
2023-06-10T09:28:19.739Z,101764.00
2023-06-10T09:29:21.507Z,101771.66
2023-06-10T09:30:34.570Z,101770.19
2023-06-10T09:31:37.677Z,101772.22
2023-06-10T09:32:40.744Z,101762.44
2023-06-10T09:33:42.420Z,101761.88
2023-06-10T09:34:45.498Z,101763.19
2023-06-10T09:35:49.289Z,101763.28
2023-06-10T09:36:51.304Z,101762.44
2023-06-10T09:38:03.408Z,101770.56
2023-06-10T09:39:06.180Z,101776.22
2023-06-10T09:40:11.952Z,101760.22
2023-06-10T09:41:16.283Z,101759.00
2023-06-10T09:42:19.666Z,101761.16
2023-06-10T09:43:21.831Z,101764.34
2023-06-10T09:44:25.553Z,101771.06
2023-06-10T09:45:34.211Z,101762.25
2023-06-10T09:46:36.389Z,101758.81
2023-06-10T09:47:38.164Z,101760.03
2023-06-10T09:48:45.044Z,101751.59
2023-06-10T09:49:47.056Z,101752.91
2023-06-10T09:50:49.612Z,101761.59
2023-06-10T09:51:53.319Z,101757.81
2023-06-10T09:52:55.042Z,101750.50
2023-06-10T09:53:56.692Z,101753.16
2023-06-10T09:55:02.588Z,101763.59
2023-06-10T09:56:04.584Z,101753.78
2023-06-10T09:57:10.376Z,101760.53
2023-06-10T09:58:11.997Z,101749.84
2023-06-10T09:59:13.730Z,101755.88
2023-06-10T10:00:16.663Z,101757.22
2023-06-10T10:01:18.702Z,101749.72
2023-06-10T10:02:20.710Z,101756.72
2023-06-10T10:03:25.628Z,101755.16
2023-06-10T10:04:29.597Z,101759.75
2023-06-10T10:05:31.648Z,101752.50
2023-06-10T10:06:33.749Z,101756.53
2023-06-10T10:07:35.912Z,101761.44
2023-06-10T10:08:37.613Z,101760.41
2023-06-10T10:09:40.750Z,101758.97
2023-06-10T10:10:42.378Z,101763.00
2023-06-10T10:11:45.156Z,101756.63
2023-06-10T10:12:54.726Z,101760.75
2023-06-10T10:13:56.559Z,101766.78
2023-06-10T10:14:58.257Z,101766.63
2023-06-10T10:16:02.743Z,101765.06
2023-06-10T10:17:12.059Z,101776.13
2023-06-10T10:18:19.222Z,101765.94
2023-06-10T10:19:32.050Z,101767.59
2023-06-10T10:20:35.868Z,101766.44
2023-06-10T10:21:46.057Z,101769.91
2023-06-10T10:22:50.810Z,101763.59
2023-06-10T10:24:31.303Z,101761.50
2023-06-10T10:25:39.108Z,101760.31
2023-06-10T10:26:41.559Z,101769.03
2023-06-10T10:27:52.146Z,101770.81
2023-06-10T10:29:12.508Z,101761.00
2023-06-10T10:30:17.007Z,101768.84
2023-06-10T10:31:20.330Z,101766.06
2023-06-10T10:32:33.527Z,101768.47
2023-06-10T10:33:57.452Z,101762.84
2023-06-10T10:35:20.259Z,101763.16
2023-06-10T10:36:21.840Z,101774.41
2023-06-10T10:37:23.904Z,101768.97
2023-06-10T10:38:26.150Z,101775.25
2023-06-10T10:39:29.323Z,101765.25
2023-06-10T10:40:31.282Z,101777.56
2023-06-10T10:41:33.958Z,101773.63
2023-06-10T10:42:37.558Z,101775.44
2023-06-10T10:43:39.395Z,101767.50
2023-06-10T10:44:41.693Z,101761.03
2023-06-10T10:45:43.307Z,101764.28
2023-06-10T10:46:49.428Z,101762.06
2023-06-10T10:47:56.768Z,101755.78
2023-06-10T10:48:59.848Z,101754.88
2023-06-10T10:50:01.510Z,101761.72
2023-06-10T10:51:03.266Z,101760.19
2023-06-10T10:52:07.884Z,101754.88
2023-06-10T10:53:12.063Z,101759.28
2023-06-10T10:54:14.908Z,101751.28
2023-06-10T10:55:16.677Z,101749.28
2023-06-10T10:56:21.807Z,101754.06
2023-06-10T10:57:27.409Z,101754.75
2023-06-10T10:58:29.032Z,101752.56
2023-06-10T10:59:50.498Z,101750.81
2023-06-10T11:00:52.172Z,101752.06
2023-06-10T11:01:54.287Z,101746.44
2023-06-10T11:03:11.212Z,101744.16
2023-06-10T11:04:14.426Z,101756.00
2023-06-10T11:05:17.482Z,101752.72
2023-06-10T11:06:19.733Z,101753.41
2023-06-10T11:07:22.817Z,101747.00
2023-06-10T11:08:33.700Z,101750.16
2023-06-10T11:09:35.744Z,101755.03
2023-06-10T11:10:42.400Z,101770.53
2023-06-10T11:11:51.002Z,101763.94
2023-06-10T11:12:54.214Z,101748.75
2023-06-10T11:14:02.729Z,101751.78
2023-06-10T11:15:05.041Z,101761.88
2023-06-10T11:16:10.955Z,101756.94
2023-06-10T11:17:22.556Z,101754.47
2023-06-10T11:18:32.242Z,101754.06
2023-06-10T11:19:38.603Z,101758.25
2023-06-10T11:20:56.629Z,101759.03
2023-06-10T11:22:02.939Z,101747.34
2023-06-10T11:23:04.842Z,101756.69
2023-06-10T11:24:15.985Z,101750.75
2023-06-10T11:25:17.678Z,101754.56
2023-06-10T11:26:32.289Z,101756.81
2023-06-10T11:27:40.540Z,101766.88
2023-06-10T11:29:06.029Z,101761.34
2023-06-10T11:30:08.788Z,101772.06
2023-06-10T11:31:21.698Z,101756.25
2023-06-10T11:32:30.074Z,101752.53
2023-06-10T11:33:33.582Z,101759.72
2023-06-10T11:34:35.324Z,101742.50
2023-06-10T11:35:37.306Z,101741.75
2023-06-10T11:36:43.370Z,101759.31
2023-06-10T11:37:45.823Z,101747.28
2023-06-10T11:38:47.847Z,101749.28
2023-06-10T11:39:53.741Z,101743.19
2023-06-10T11:40:57.245Z,101748.13
2023-06-10T11:41:59.592Z,101738.66
2023-06-10T11:43:01.473Z,101743.41
2023-06-10T11:44:06.201Z,101745.28
2023-06-10T11:45:09.690Z,101751.31
2023-06-10T11:46:15.587Z,101738.66
2023-06-10T11:47:18.741Z,101742.38
2023-06-10T11:48:20.839Z,101734.81
2023-06-10T11:49:22.740Z,101735.91
2023-06-10T11:50:31.609Z,101732.16
2023-06-10T11:51:38.628Z,101748.59
2023-06-10T11:52:42.421Z,101740.34
2023-06-10T11:53:51.005Z,101743.56
2023-06-10T11:54:56.464Z,101742.41
2023-06-10T11:55:58.129Z,101742.47
2023-06-10T11:57:04.327Z,101745.16
2023-06-10T11:58:06.078Z,101741.72
2023-06-10T11:59:08.803Z,101736.81
2023-06-10T12:00:11.218Z,101739.66
2023-06-10T12:01:28.235Z,101734.97
2023-06-10T12:02:30.855Z,101729.59
2023-06-10T12:03:40.676Z,101742.09
2023-06-10T12:04:42.420Z,101733.72
2023-06-10T12:06:06.150Z,101732.44
2023-06-10T12:07:07.722Z,101733.78